Terminal Aerodrome Forecast
Issued by NWS

Home | Current Version | Previous Version | Text Only | Print | Product List | Glossary On
Versions: 1 2 3 4 5 6 7 8 9 10 11 12 13 14 15 16 17 18
000
FTUS44 KLIX 262332
TAFHDC
TAF
KHDC 262332Z 2700/2724 14008G18KT P6SM SCT050
     FM270200 15006KT P6SM SKC
     FM270700 14004KT P6SM BKN020
     FM271200 11005KT P6SM OVC025
     FM271400 14008KT P6SM OVC035=

USA.gov is the U.S. government's official web portal to all federal, state and local government web resources and services.